Time;durP1;ratioP1;P1;durP2;ratioP2;P2;SDS_P1;SDS_P2;PMS_P1;PMS_P2;Temp;Humidity;BMP_temperature;BMP_pressure;BME280_temperature;BME280_humidity;BME280_pressure;Samples;Min_cycle;Max_cycle;Signal;HPM_P1;HPM_P2
2022/12/20 00:01:49;;;;;;;17.35;13.27;;;6.80;99.90;;;;;;5130345;27;20297;-77
2022/12/20 00:04:16;;;;;;;19.08;13.25;;;6.80;99.90;;;;;;5124164;27;20227;-77
2022/12/20 00:06:43;;;;;;;15.48;12.00;;;6.80;99.90;;;;;;5132232;27;20233;-76
2022/12/20 00:09:19;;;;;;;18.25;13.80;;;6.80;99.90;;;;;;5133505;27;20680;-77
2022/12/20 00:11:47;;;;;;;17.45;13.65;;;6.80;99.90;;;;;;5132823;27;20222;-78
2022/12/20 00:14:20;;;;;;;16.48;12.73;;;6.80;99.90;;;;;;5135230;27;20217;-76
2022/12/20 00:16:49;;;;;;;18.02;12.25;;;6.80;99.90;;;;;;5135747;27;20255;-78
2022/12/20 00:19:16;;;;;;;18.67;13.85;;;6.80;99.90;;;;;;5135002;27;20222;-77
2022/12/20 00:21:44;;;;;;;17.48;12.95;;;6.80;99.90;;;;;;5136300;27;20279;-76
2022/12/20 00:24:12;;;;;;;20.10;14.20;;;6.80;99.90;;;;;;5128148;27;20215;-77
2022/12/20 00:26:59;;;;;;;19.77;14.35;;;6.80;99.90;;;;;;5135570;27;20226;-76
2022/12/20 00:29:26;;;;;;;16.77;13.38;;;6.80;99.90;;;;;;5134403;27;20225;-77
2022/12/20 00:31:57;;;;;;;21.48;14.18;;;6.80;99.90;;;;;;5135038;27;20585;-78
2022/12/20 00:34:27;;;;;;;15.93;13.50;;;6.80;99.90;;;;;;5147723;27;20462;-77
2022/12/20 00:36:54;;;;;;;15.45;13.27;;;6.90;99.90;;;;;;5138602;27;20286;-77
2022/12/20 00:39:22;;;;;;;13.85;12.07;;;6.80;99.90;;;;;;5126672;27;20222;-77
2022/12/20 00:41:49;;;;;;;15.98;13.00;;;6.90;99.90;;;;;;5148967;27;20248;-76
2022/12/20 00:44:16;;;;;;;18.45;12.20;;;6.90;99.90;;;;;;5134956;27;20278;-77
2022/12/20 00:46:43;;;;;;;16.80;12.90;;;6.90;99.90;;;;;;5134534;27;20615;-76
2022/12/20 00:49:10;;;;;;;18.75;14.63;;;6.90;99.90;;;;;;5134035;27;20305;-78
2022/12/20 00:51:40;;;;;;;18.73;13.07;;;6.90;99.90;;;;;;5134656;27;20524;-77
2022/12/20 00:54:07;;;;;;;17.80;12.27;;;6.90;99.90;;;;;;5135602;27;20649;-77
2022/12/20 00:56:35;;;;;;;17.00;12.68;;;6.90;99.90;;;;;;5135446;27;20297;-78
2022/12/20 00:59:02;;;;;;;14.55;12.65;;;6.90;99.90;;;;;;5134362;27;20758;-76
2022/12/20 01:01:33;;;;;;;19.65;13.40;;;6.90;99.90;;;;;;5134954;27;20556;-75
2022/12/20 01:04:01;;;;;;;19.75;14.57;;;6.90;99.90;;;;;;5135526;27;20218;-75
2022/12/20 01:06:29;;;;;;;21.25;14.73;;;6.90;99.90;;;;;;5126159;27;20226;-75
2022/12/20 01:08:58;;;;;;;15.52;12.82;;;6.90;99.90;;;;;;5148312;27;20233;-77
2022/12/20 01:11:26;;;;;;;16.33;12.48;;;6.90;99.90;;;;;;5134747;27;20287;-76
2022/12/20 01:13:56;;;;;;;15.43;11.60;;;7.00;99.90;;;;;;5135334;27;20295;-77
2022/12/20 01:16:28;;;;;;;16.30;12.98;;;7.00;99.90;;;;;;5123199;27;21121;-76
2022/12/20 01:18:55;;;;;;;17.15;12.43;;;7.00;99.90;;;;;;5145542;27;20233;-76
2022/12/20 01:21:26;;;;;;;15.48;12.50;;;7.00;99.90;;;;;;5128737;27;20740;-77
2022/12/20 01:23:55;;;;;;;16.85;11.65;;;7.00;99.90;;;;;;5131283;27;20652;-77
2022/12/20 01:26:25;;;;;;;14.43;11.43;;;7.00;99.90;;;;;;5114406;27;20554;-77
2022/12/20 01:28:56;;;;;;;17.40;11.75;;;7.00;99.90;;;;;;5114000;27;20249;-77
2022/12/20 01:31:24;;;;;;;17.50;12.93;;;7.00;99.90;;;;;;5114681;27;20605;-76
2022/12/20 01:33:52;;;;;;;17.10;12.25;;;7.00;99.90;;;;;;5123246;27;20521;-77
2022/12/20 01:36:23;;;;;;;16.02;12.52;;;7.10;99.90;;;;;;5135145;27;20220;-76
2022/12/20 01:38:51;;;;;;;14.80;11.32;;;7.10;99.90;;;;;;5133994;27;20230;-76
2022/12/20 01:41:20;;;;;;;18.83;11.32;;;7.00;99.90;;;;;;5134690;27;20214;-79
2022/12/20 01:43:51;;;;;;;17.95;12.30;;;7.10;99.90;;;;;;5134043;27;20226;-78
2022/12/20 01:46:22;;;;;;;14.40;12.30;;;7.10;99.90;;;;;;5134596;27;20228;-79
2022/12/20 01:48:54;;;;;;;17.25;12.10;;;7.10;99.90;;;;;;5133696;27;20241;-78
2022/12/20 01:51:23;;;;;;;17.15;13.07;;;7.10;99.90;;;;;;5134361;27;20316;-78
2022/12/20 01:53:56;;;;;;;16.20;11.30;;;7.10;99.90;;;;;;5134113;27;20222;-77
2022/12/20 01:56:23;;;;;;;17.13;12.52;;;7.10;99.90;;;;;;5134487;27;20218;-78
2022/12/20 01:58:53;;;;;;;18.95;13.48;;;7.10;99.90;;;;;;5133514;27;20309;-78
2022/12/20 02:01:24;;;;;;;19.20;13.25;;;7.10;99.90;;;;;;5134418;27;20214;-77
2022/12/20 02:03:54;;;;;;;17.27;12.05;;;7.10;99.90;;;;;;5133991;27;20290;-78
2022/12/20 02:06:24;;;;;;;17.88;12.43;;;7.00;99.90;;;;;;5134216;27;20226;-78
2022/12/20 02:08:56;;;;;;;14.13;12.20;;;7.00;99.90;;;;;;5114647;27;20355;-76
2022/12/20 02:11:38;;;;;;;17.98;12.02;;;7.10;99.90;;;;;;5113654;27;20211;-77
2022/12/20 02:14:13;;;;;;;15.23;10.65;;;7.10;99.90;;;;;;5113264;27;20222;-78
2022/12/20 02:16:49;;;;;;;12.23;10.85;;;7.10;99.90;;;;;;5113062;27;20312;-76
2022/12/20 02:19:38;;;;;;;15.60;11.30;;;7.00;99.90;;;;;;5146905;27;20221;-76
2022/12/20 02:22:26;;;;;;;17.88;13.45;;;7.00;99.90;;;;;;5111471;27;20470;-77
2022/12/20 02:25:32;;;;;;;20.15;14.02;;;7.10;99.90;;;;;;5121165;27;20221;-76
2022/12/20 02:28:04;;;;;;;20.73;12.90;;;7.10;99.90;;;;;;5131661;27;20718;-77
2022/12/20 02:30:43;;;;;;;17.10;12.52;;;7.00;99.90;;;;;;5131403;27;20240;-77
2022/12/20 02:33:13;;;;;;;16.50;12.35;;;7.00;99.90;;;;;;5132257;27;20297;-77
2022/12/20 02:35:41;;;;;;;18.58;13.13;;;7.00;99.90;;;;;;5133071;27;20232;-76
2022/12/20 02:38:28;;;;;;;19.20;12.07;;;7.00;99.90;;;;;;5133302;27;20738;-77
2022/12/20 02:41:06;;;;;;;16.88;12.20;;;7.10;99.90;;;;;;5132615;27;20758;-76
2022/12/20 02:46:59;;;;;;;17.33;13.13;;;7.00;99.90;;;;;;5133042;27;20229;-77
2022/12/20 02:49:30;;;;;;;15.35;11.73;;;7.00;99.90;;;;;;5123880;27;20213;-76
2022/12/20 02:52:10;;;;;;;16.50;11.57;;;7.10;99.90;;;;;;5133302;27;20278;-78
2022/12/20 02:54:38;;;;;;;14.45;11.43;;;7.10;99.90;;;;;;5133772;27;20222;-78
2022/12/20 02:57:10;;;;;;;15.43;11.32;;;7.10;99.90;;;;;;5132709;27;20301;-77
2022/12/20 02:59:41;;;;;;;16.73;11.77;;;7.10;99.90;;;;;;5122965;27;20249;-77
2022/12/20 03:02:11;;;;;;;16.48;10.63;;;7.10;99.90;;;;;;5146112;27;20224;-77
2022/12/20 03:04:40;;;;;;;15.48;11.57;;;7.20;99.90;;;;;;5142701;27;20226;-77
2022/12/20 03:07:19;;;;;;;13.45;10.40;;;7.20;99.90;;;;;;5132810;27;20317;-77
2022/12/20 03:09:46;;;;;;;17.00;12.98;;;7.20;99.90;;;;;;5132780;27;20240;-76
2022/12/20 03:12:18;;;;;;;14.50;11.50;;;7.30;99.90;;;;;;5133112;27;20536;-77
2022/12/20 03:14:45;;;;;;;12.55;10.40;;;7.30;99.90;;;;;;5125175;27;20222;-77
2022/12/20 03:17:14;;;;;;;12.10;10.20;;;7.30;99.90;;;;;;5144417;27;20756;-77
2022/12/20 03:19:41;;;;;;;18.35;12.70;;;7.30;99.90;;;;;;5126095;27;20652;-77
2022/12/20 03:22:08;;;;;;;16.35;11.63;;;7.30;99.90;;;;;;5112248;27;20254;-77
2022/12/20 03:24:36;;;;;;;13.65;10.45;;;7.30;99.90;;;;;;5112543;27;20218;-78
2022/12/20 03:27:05;;;;;;;16.95;12.23;;;7.30;99.90;;;;;;5112283;27;20230;-77
2022/12/20 03:29:32;;;;;;;19.27;13.95;;;7.30;99.90;;;;;;5103339;27;20254;-77
2022/12/20 03:32:01;;;;;;;15.88;11.90;;;7.30;99.90;;;;;;5111223;27;20300;-77
2022/12/20 03:34:29;;;;;;;14.85;11.30;;;7.30;99.90;;;;;;5130784;27;20686;-77
2022/12/20 03:37:01;;;;;;;19.65;13.13;;;7.30;99.90;;;;;;5132041;27;20230;-77
2022/12/20 03:39:28;;;;;;;14.43;10.52;;;7.30;99.90;;;;;;5131575;27;20676;-77
2022/12/20 03:41:55;;;;;;;20.13;13.10;;;7.30;99.90;;;;;;5132985;27;20301;-77
2022/12/20 03:44:23;;;;;;;14.77;11.48;;;7.30;99.90;;;;;;5131494;27;20682;-77
2022/12/20 03:46:54;;;;;;;15.60;11.02;;;7.40;99.90;;;;;;5139954;27;20272;-77
2022/12/20 03:49:26;;;;;;;16.40;11.07;;;7.40;99.90;;;;;;5136111;27;20221;-77
2022/12/20 03:51:54;;;;;;;15.25;11.15;;;7.40;99.90;;;;;;5136978;27;20233;-77
2022/12/20 03:54:21;;;;;;;14.95;10.75;;;7.50;99.90;;;;;;5136668;27;20222;-77
2022/12/20 03:56:48;;;;;;;13.75;11.73;;;7.40;99.90;;;;;;5136979;27;20261;-76
2022/12/20 03:59:18;;;;;;;16.13;11.07;;;7.50;99.90;;;;;;5128100;27;20222;-76
2022/12/20 04:01:47;;;;;;;15.32;11.60;;;7.40;99.90;;;;;;5136021;27;20567;-76
2022/12/20 04:04:15;;;;;;;13.50;11.15;;;7.40;99.90;;;;;;5136546;27;20253;-76
2022/12/20 04:06:42;;;;;;;14.23;10.82;;;7.40;99.90;;;;;;5135315;27;20232;-77
2022/12/20 04:09:13;;;;;;;14.02;10.23;;;7.40;99.90;;;;;;5136785;27;20263;-76
2022/12/20 04:11:40;;;;;;;13.10;11.18;;;7.40;99.90;;;;;;5159880;27;20248;-76
2022/12/20 04:14:07;;;;;;;13.45;10.73;;;7.50;99.90;;;;;;5136663;27;20293;-77
2022/12/20 04:16:37;;;;;;;14.57;10.73;;;7.50;99.90;;;;;;5127283;27;20710;-77
2022/12/20 04:19:11;;;;;;;11.70;9.60;;;7.50;99.90;;;;;;5153584;27;20219;-76
2022/12/20 04:21:39;;;;;;;13.88;11.13;;;7.50;99.90;;;;;;5115139;27;20249;-76
2022/12/20 04:24:06;;;;;;;15.82;11.68;;;7.40;99.90;;;;;;5116026;27;20219;-77
2022/12/20 04:26:35;;;;;;;13.25;10.02;;;7.50;99.90;;;;;;5115734;27;20215;-76
2022/12/20 04:29:07;;;;;;;14.90;10.95;;;7.50;99.90;;;;;;5115671;27;20223;-76
2022/12/20 04:31:35;;;;;;;13.98;10.40;;;7.50;99.90;;;;;;5115097;27;20230;-77
2022/12/20 04:34:16;;;;;;;14.57;10.15;;;7.50;99.90;;;;;;5115098;27;20219;-77
2022/12/20 04:36:44;;;;;;;16.58;12.20;;;7.50;99.90;;;;;;5115375;27;20238;-76
2022/12/20 04:39:11;;;;;;;14.18;11.27;;;7.40;99.90;;;;;;5115481;27;20268;-76
2022/12/20 04:41:39;;;;;;;13.18;10.63;;;7.40;99.90;;;;;;5115468;27;20302;-76
2022/12/20 04:44:06;;;;;;;17.65;10.85;;;7.40;99.90;;;;;;5115124;27;20246;-77
2022/12/20 04:46:38;;;;;;;12.45;10.05;;;7.40;99.90;;;;;;5115749;27;20777;-77
2022/12/20 04:49:05;;;;;;;13.43;10.40;;;7.40;99.90;;;;;;5114492;27;20226;-76
2022/12/20 04:51:32;;;;;;;12.30;10.27;;;7.40;99.90;;;;;;5115179;27;20321;-76
2022/12/20 04:54:04;;;;;;;17.02;11.27;;;7.40;99.90;;;;;;5114880;27;20223;-76
2022/12/20 04:56:31;;;;;;;12.18;9.73;;;7.40;99.90;;;;;;5114516;27;20211;-77
2022/12/20 04:59:07;;;;;;;15.65;10.75;;;7.40;99.90;;;;;;5114387;27;20254;-77
2022/12/20 05:01:36;;;;;;;15.13;10.70;;;7.40;99.90;;;;;;5114688;27;20305;-76
2022/12/20 05:04:04;;;;;;;12.00;10.02;;;7.40;99.90;;;;;;5113831;27;20551;-76
2022/12/20 05:06:52;;;;;;;11.73;10.57;;;7.40;99.90;;;;;;5114966;27;20711;-76
2022/12/20 05:09:25;;;;;;;12.30;9.85;;;7.40;99.90;;;;;;5115361;27;20238;-76
2022/12/20 05:11:56;;;;;;;13.90;10.75;;;7.40;99.90;;;;;;5110545;28;20679;-78
2022/12/20 05:14:29;;;;;;;15.23;11.48;;;7.40;99.90;;;;;;5113424;27;20284;-77
2022/12/20 05:17:05;;;;;;;13.30;10.60;;;7.30;99.90;;;;;;5102938;27;20294;-77
2022/12/20 05:19:32;;;;;;;14.45;11.52;;;7.40;99.90;;;;;;5113484;27;20620;-78
2022/12/20 05:27:39;;;;;;;11.93;9.38;;;7.40;99.90;;;;;;5114674;27;20222;-76
2022/12/20 05:30:09;;;;;;;11.88;9.25;;;7.40;99.90;;;;;;5114543;27;20234;-77
2022/12/20 05:32:36;;;;;;;11.45;10.25;;;7.40;99.90;;;;;;5106497;27;20253;-76
2022/12/20 05:35:05;;;;;;;13.07;9.80;;;7.40;99.90;;;;;;5114872;27;20329;-76
2022/12/20 05:37:35;;;;;;;14.93;10.70;;;7.40;99.90;;;;;;5105908;27;20226;-76
2022/12/20 05:40:03;;;;;;;13.38;10.85;;;7.40;99.90;;;;;;5116871;27;20229;-77
2022/12/20 05:42:33;;;;;;;15.27;10.60;;;7.40;99.90;;;;;;5133586;27;20337;-77
2022/12/20 05:45:11;;;;;;;14.00;10.43;;;7.40;99.90;;;;;;5114221;27;20302;-76
2022/12/20 05:47:38;;;;;;;13.23;10.85;;;7.40;99.90;;;;;;5113838;27;20568;-76
2022/12/20 05:50:06;;;;;;;14.55;11.02;;;7.40;99.90;;;;;;5114298;27;20273;-76
2022/12/20 05:52:36;;;;;;;11.98;10.00;;;7.50;99.90;;;;;;5113381;27;20302;-77
2022/12/20 05:55:06;;;;;;;14.73;10.25;;;7.50;99.90;;;;;;5114191;27;20229;-76
2022/12/20 05:57:40;;;;;;;14.18;11.20;;;7.50;99.90;;;;;;5113188;27;20519;-77
2022/12/20 06:00:19;;;;;;;12.60;11.30;;;7.50;99.90;;;;;;5131622;27;20221;-76
2022/12/20 06:02:47;;;;;;;15.55;10.85;;;7.60;99.90;;;;;;5121577;27;20228;-77
2022/12/20 06:05:15;;;;;;;12.88;9.65;;;7.60;99.90;;;;;;5114195;27;20269;-77
2022/12/20 06:07:42;;;;;;;15.98;11.80;;;7.60;99.90;;;;;;5113194;27;20236;-77
2022/12/20 06:10:19;;;;;;;14.38;10.85;;;7.60;99.90;;;;;;5113051;27;20222;-76
2022/12/20 06:12:45;;;;;;;13.25;10.88;;;7.60;99.90;;;;;;5113381;27;20667;-76
2022/12/20 06:15:14;;;;;;;13.48;10.02;;;7.60;99.90;;;;;;5113941;27;20336;-77
2022/12/20 06:17:41;;;;;;;15.90;11.40;;;7.60;99.90;;;;;;5113000;27;20305;-76
2022/12/20 06:20:10;;;;;;;15.52;10.85;;;7.60;99.90;;;;;;5113599;27;20321;-76
2022/12/20 06:22:37;;;;;;;14.55;11.27;;;7.60;99.90;;;;;;5113231;27;20222;-76
2022/12/20 06:25:08;;;;;;;17.10;12.60;;;7.60;99.90;;;;;;5113641;27;20313;-76
2022/12/20 06:27:35;;;;;;;13.43;10.98;;;7.70;99.90;;;;;;5113123;27;20535;-76
2022/12/20 06:30:02;;;;;;;12.77;10.35;;;7.70;99.90;;;;;;5113381;27;20233;-76
2022/12/20 06:32:30;;;;;;;14.35;11.48;;;7.70;99.90;;;;;;5113538;27;20712;-76
2022/12/20 06:34:57;;;;;;;15.35;10.23;;;7.70;99.90;;;;;;5112925;27;20245;-76
2022/12/20 06:37:24;;;;;;;14.02;11.40;;;7.70;99.90;;;;;;5113069;27;20222;-76
2022/12/20 06:39:54;;;;;;;14.57;10.95;;;7.70;99.90;;;;;;5113173;27;20539;-76
2022/12/20 06:42:23;;;;;;;15.13;12.30;;;7.70;99.90;;;;;;5113188;27;20641;-77
2022/12/20 06:44:52;;;;;;;12.73;9.85;;;7.70;99.90;;;;;;5112801;27;20223;-76
2022/12/20 06:47:28;;;;;;;13.85;11.38;;;7.70;99.90;;;;;;5123070;27;20217;-76
2022/12/20 06:49:57;;;;;;;13.43;11.35;;;7.70;99.90;;;;;;5137212;27;20225;-77
2022/12/20 06:52:24;;;;;;;15.73;12.15;;;7.80;99.90;;;;;;5113187;27;20664;-76
2022/12/20 06:54:54;;;;;;;14.35;12.30;;;7.80;99.90;;;;;;5103510;27;20301;-77
2022/12/20 06:57:21;;;;;;;18.25;12.80;;;7.80;99.90;;;;;;5144563;27;20223;-76
2022/12/20 06:59:50;;;;;;;16.67;12.75;;;7.80;99.90;;;;;;5117307;27;20308;-77
2022/12/20 07:02:19;;;;;;;14.38;12.80;;;7.80;99.90;;;;;;5131582;27;20279;-76
2022/12/20 07:05:02;;;;;;;18.77;13.82;;;7.80;99.90;;;;;;5113266;27;20719;-77
2022/12/20 07:07:29;;;;;;;18.90;13.95;;;7.70;99.90;;;;;;5111455;27;20630;-77
2022/12/20 07:09:56;;;;;;;18.75;14.50;;;7.80;99.90;;;;;;5104605;27;20226;-77
2022/12/20 07:12:30;;;;;;;17.15;14.10;;;7.80;99.90;;;;;;5107072;27;20241;-77
2022/12/20 07:14:57;;;;;;;16.35;12.20;;;7.80;99.90;;;;;;5139090;27;20301;-77
2022/12/20 07:17:38;;;;;;;16.55;12.95;;;7.80;99.90;;;;;;5112124;27;20250;-77
2022/12/20 07:20:25;;;;;;;16.55;13.07;;;7.80;99.90;;;;;;5112721;27;20241;-78
2022/12/20 07:22:52;;;;;;;17.55;12.65;;;7.90;99.90;;;;;;5123078;27;20245;-77
2022/12/20 07:25:19;;;;;;;16.63;12.82;;;7.80;99.90;;;;;;5133362;27;20214;-77
2022/12/20 07:27:53;;;;;;;16.55;12.90;;;7.80;99.90;;;;;;5138107;27;20225;-78
2022/12/20 07:30:22;;;;;;;13.20;11.20;;;7.90;99.90;;;;;;5115879;27;20280;-77
2022/12/20 07:32:48;;;;;;;12.27;10.07;;;7.90;99.90;;;;;;5117341;27;20317;-77
2022/12/20 07:35:17;;;;;;;14.32;10.43;;;7.90;99.90;;;;;;5116842;27;20257;-77
2022/12/20 07:37:44;;;;;;;14.82;10.73;;;8.00;99.90;;;;;;5117085;27;20565;-77
2022/12/20 07:40:15;;;;;;;12.82;10.98;;;8.00;99.90;;;;;;5116660;27;20309;-78
2022/12/20 07:42:48;;;;;;;16.20;12.32;;;8.00;99.90;;;;;;5118809;27;20241;-77
2022/12/20 07:45:25;;;;;;;13.73;10.90;;;8.00;99.90;;;;;;5136240;27;20520;-77
2022/12/20 07:47:53;;;;;;;12.90;11.05;;;8.00;99.90;;;;;;5116827;27;20613;-77
2022/12/20 07:50:21;;;;;;;16.08;12.13;;;8.10;99.90;;;;;;5116509;27;20230;-77
2022/12/20 07:52:49;;;;;;;15.30;10.68;;;8.00;99.90;;;;;;5116178;27;20310;-77
2022/12/20 07:55:18;;;;;;;13.68;11.48;;;8.10;99.90;;;;;;5115913;27;20680;-77
2022/12/20 07:57:49;;;;;;;18.33;12.27;;;8.10;99.90;;;;;;5116665;27;20571;-77
2022/12/20 08:00:20;;;;;;;15.00;10.80;;;8.10;99.90;;;;;;5116285;27;20236;-77
2022/12/20 08:02:52;;;;;;;17.98;11.50;;;8.10;99.90;;;;;;5117123;27;20302;-77
2022/12/20 08:05:21;;;;;;;14.73;10.80;;;8.10;99.90;;;;;;5127104;27;20312;-76
2022/12/20 08:07:55;;;;;;;16.63;12.68;;;8.10;99.90;;;;;;5119848;27;20222;-77
2022/12/20 08:10:22;;;;;;;15.32;12.07;;;8.10;99.90;;;;;;5115896;27;20321;-76
2022/12/20 08:12:49;;;;;;;13.73;11.02;;;8.10;99.90;;;;;;5116406;27;20333;-76
2022/12/20 08:15:18;;;;;;;17.00;12.10;;;8.10;99.90;;;;;;5116868;27;20238;-77
2022/12/20 08:17:46;;;;;;;14.57;11.02;;;8.10;99.90;;;;;;5134891;27;20225;-77
2022/12/20 08:20:19;;;;;;;15.88;13.07;;;8.10;99.90;;;;;;5121997;27;20295;-76
2022/12/20 08:22:47;;;;;;;22.52;13.70;;;8.10;99.90;;;;;;5115939;27;20226;-76
2022/12/20 08:25:21;;;;;;;25.70;17.88;;;8.00;99.90;;;;;;5107804;27;20306;-77
2022/12/20 08:27:50;;;;;;;20.98;15.43;;;8.00;99.90;;;;;;5115008;27;20246;-76
2022/12/20 08:30:20;;;;;;;18.25;15.07;;;8.00;99.90;;;;;;5115131;27;20229;-76
2022/12/20 08:32:55;;;;;;;19.63;15.63;;;8.10;99.90;;;;;;5103350;27;20560;-76
2022/12/20 08:35:23;;;;;;;19.48;15.25;;;8.10;99.90;;;;;;5114792;27;20306;-76
2022/12/20 08:37:52;;;;;;;22.15;16.48;;;8.10;99.90;;;;;;5114702;27;20309;-77
2022/12/20 08:40:20;;;;;;;20.48;14.45;;;8.10;99.90;;;;;;5114172;27;20663;-75
2022/12/20 08:42:47;;;;;;;20.50;15.30;;;8.10;99.90;;;;;;5114813;27;20253;-76
2022/12/20 08:45:17;;;;;;;15.90;13.18;;;8.20;99.90;;;;;;5115116;27;20298;-75
2022/12/20 08:47:44;;;;;;;19.25;13.60;;;8.20;99.90;;;;;;5114483;27;20252;-78
2022/12/20 08:50:21;;;;;;;20.70;13.25;;;8.10;99.90;;;;;;5115003;27;20271;-76
2022/12/20 08:52:48;;;;;;;16.70;14.65;;;8.10;99.90;;;;;;5114047;27;20233;-76
2022/12/20 08:55:17;;;;;;;20.33;14.38;;;8.20;99.90;;;;;;5122117;27;20227;-76
2022/12/20 08:57:44;;;;;;;15.55;11.55;;;8.20;99.90;;;;;;5120460;27;20298;-76
2022/12/20 09:00:15;;;;;;;15.35;13.30;;;8.20;99.90;;;;;;5129268;27;20245;-77
2022/12/20 09:02:42;;;;;;;15.45;11.52;;;8.30;99.90;;;;;;5113517;27;20284;-77
2022/12/20 09:05:17;;;;;;;13.18;11.25;;;8.30;99.90;;;;;;5114293;27;20222;-77
2022/12/20 09:07:49;;;;;;;16.48;12.90;;;8.40;99.90;;;;;;5114284;27;20299;-76
2022/12/20 09:10:19;;;;;;;19.10;14.32;;;8.40;99.90;;;;;;5113566;27;20234;-76
2022/12/20 09:12:53;;;;;;;18.48;14.45;;;8.40;99.90;;;;;;5114307;27;21131;-77
2022/12/20 09:15:24;;;;;;;18.85;14.60;;;8.40;99.90;;;;;;5105791;27;20648;-77
2022/12/20 09:17:57;;;;;;;18.73;13.80;;;8.40;99.90;;;;;;5127487;27;20217;-77
2022/12/20 09:20:27;;;;;;;19.17;13.25;;;8.50;99.90;;;;;;5122331;27;20253;-76
2022/12/20 09:22:54;;;;;;;23.88;16.08;;;8.50;99.90;;;;;;5114080;27;20225;-77
2022/12/20 09:25:27;;;;;;;18.25;13.57;;;8.50;99.90;;;;;;5114431;27;20664;-76
2022/12/20 09:27:59;;;;;;;19.55;13.38;;;8.60;99.90;;;;;;5113765;27;20218;-76
2022/12/20 09:30:26;;;;;;;18.20;13.45;;;8.60;99.90;;;;;;5114229;27;20582;-76
2022/12/20 09:32:53;;;;;;;18.15;13.18;;;8.70;99.90;;;;;;5113595;27;20265;-76
2022/12/20 09:35:26;;;;;;;15.93;12.98;;;8.70;99.90;;;;;;5114101;27;20211;-77
2022/12/20 09:37:57;;;;;;;18.33;14.13;;;8.70;99.90;;;;;;5113536;27;20274;-78
2022/12/20 09:40:37;;;;;;;22.58;15.45;;;8.80;99.90;;;;;;5113917;27;20321;-76
2022/12/20 09:43:04;;;;;;;19.13;12.80;;;8.80;99.90;;;;;;5126026;27;20321;-77
2022/12/20 09:45:36;;;;;;;16.27;12.57;;;8.80;99.90;;;;;;5122483;27;20306;-76
2022/12/20 09:48:04;;;;;;;17.92;12.55;;;8.80;99.90;;;;;;5113932;27;20249;-76
2022/12/20 09:50:44;;;;;;;16.67;12.00;;;8.80;99.90;;;;;;5114082;27;20324;-76
2022/12/20 09:53:31;;;;;;;17.80;14.23;;;8.90;99.90;;;;;;5113020;27;20236;-76
2022/12/20 09:56:08;;;;;;;19.38;12.90;;;8.90;99.90;;;;;;5097080;27;20229;-76
2022/12/20 09:58:57;;;;;;;20.08;13.25;;;9.00;99.90;;;;;;5113426;27;20233;-76
2022/12/20 10:01:25;;;;;;;19.30;13.32;;;9.00;99.90;;;;;;5111499;27;20222;-77
2022/12/20 10:03:57;;;;;;;18.88;13.35;;;9.00;99.90;;;;;;5113633;27;20234;-76
2022/12/20 10:06:37;;;;;;;14.35;12.10;;;9.10;99.90;;;;;;5112752;27;20267;-76
2022/12/20 10:09:13;;;;;;;17.27;13.35;;;9.10;99.90;;;;;;5136329;27;20221;-76
2022/12/20 10:12:03;;;;;;;18.45;13.93;;;9.20;99.90;;;;;;5113191;27;20273;-76
2022/12/20 10:14:55;;;;;;;19.33;14.55;;;9.20;99.90;;;;;;5113499;27;20301;-76
2022/12/20 10:17:34;;;;;;;15.95;13.32;;;9.20;99.90;;;;;;5112646;27;20309;-77
2022/12/20 10:20:32;;;;;;;17.27;14.07;;;9.20;99.90;;;;;;5105129;27;20261;-76
2022/12/20 10:23:04;;;;;;;15.25;12.48;;;9.10;99.90;;;;;;5113223;27;20323;-76
2022/12/20 10:25:34;;;;;;;21.75;14.05;;;9.20;99.90;;;;;;5113433;27;20225;-76
2022/12/20 10:28:10;;;;;;;18.65;12.95;;;9.20;99.90;;;;;;5121305;27;20286;-76
2022/12/20 10:30:40;;;;;;;17.98;13.02;;;9.30;99.90;;;;;;5124663;27;20327;-76
2022/12/20 10:33:22;;;;;;;17.02;13.00;;;9.30;99.90;;;;;;5112673;27;20230;-76
2022/12/20 10:35:53;;;;;;;20.88;15.18;;;9.40;99.90;;;;;;5117611;27;20637;-76
2022/12/20 10:38:25;;;;;;;16.20;12.45;;;9.40;99.90;;;;;;5128893;27;20246;-76
2022/12/20 10:41:17;;;;;;;12.70;10.80;;;9.40;99.90;;;;;;5112186;27;20651;-77
2022/12/20 10:43:51;;;;;;;16.55;11.35;;;9.50;99.90;;;;;;5112566;27;20272;-77
2022/12/20 10:46:18;;;;;;;16.00;11.38;;;9.50;99.90;;;;;;5112477;27;20685;-76
2022/12/20 10:48:49;;;;;;;14.73;12.50;;;9.50;99.90;;;;;;5134808;27;20663;-77
2022/12/20 10:51:19;;;;;;;17.17;13.40;;;9.50;99.90;;;;;;5112570;27;20237;-77
2022/12/20 10:53:59;;;;;;;17.52;13.35;;;9.50;99.90;;;;;;5111261;27;20287;-78
2022/12/20 10:56:32;;;;;;;18.17;12.23;;;9.50;99.90;;;;;;5113065;27;20553;-77
2022/12/20 10:59:03;;;;;;;15.93;12.75;;;9.50;99.90;;;;;;5111872;27;20227;-78
2022/12/20 11:01:33;;;;;;;15.52;12.85;;;9.50;99.90;;;;;;5112652;27;20227;-78
2022/12/20 11:04:03;;;;;;;15.82;11.93;;;9.60;99.90;;;;;;5120388;27;20726;-77
2022/12/20 11:06:43;;;;;;;13.80;11.90;;;9.60;99.90;;;;;;5125119;27;20684;-77
2022/12/20 11:09:29;;;;;;;15.10;11.85;;;9.60;99.90;;;;;;5111051;27;20408;-77
2022/12/20 11:12:05;;;;;;;15.05;12.07;;;9.70;99.90;;;;;;5112104;27;20324;-77
2022/12/20 11:14:38;;;;;;;16.30;13.20;;;9.70;99.90;;;;;;5111812;27;20222;-77
2022/12/20 11:17:20;;;;;;;14.00;10.80;;;9.70;99.90;;;;;;5134602;27;20312;-77
2022/12/20 11:20:31;;;;;;;15.70;10.77;;;9.70;99.90;;;;;;5131076;27;20358;-77
2022/12/20 11:23:10;;;;;;;14.98;11.20;;;9.80;99.90;;;;;;5092659;27;20214;-78
2022/12/20 11:26:00;;;;;;;13.48;11.68;;;9.80;99.90;;;;;;5112602;27;20230;-78
2022/12/20 11:28:49;;;;;;;13.73;11.35;;;9.80;99.90;;;;;;5112309;27;20210;-78
2022/12/20 11:31:26;;;;;;;13.80;11.20;;;9.80;99.90;;;;;;5103725;27;20310;-78
2022/12/20 11:37:14;;;;;;;12.95;10.73;;;9.80;99.90;;;;;;5112142;27;20218;-78
2022/12/20 11:39:57;;;;;;;15.00;10.60;;;9.80;99.90;;;;;;5112140;27;20226;-78
2022/12/20 11:42:45;;;;;;;13.32;10.93;;;9.80;99.90;;;;;;5125510;27;20228;-77
2022/12/20 11:45:35;;;;;;;16.50;11.98;;;9.90;99.90;;;;;;5115230;27;20256;-78
2022/12/20 11:48:34;;;;;;;13.93;12.10;;;9.90;99.90;;;;;;5109087;27;20230;-78
2022/12/20 11:51:07;;;;;;;14.95;11.90;;;9.90;99.90;;;;;;5112157;27;20309;-77
2022/12/20 11:53:39;;;;;;;13.85;10.15;;;9.90;99.90;;;;;;5111118;27;20249;-79
2022/12/20 11:59:03;;;;;;;15.10;11.77;;;9.90;99.90;;;;;;5111289;27;20329;-78
2022/12/20 12:01:35;;;;;;;12.73;10.60;;;9.90;99.90;;;;;;5128579;27;20285;-76
2022/12/20 12:04:18;;;;;;;13.98;10.85;;;9.90;99.90;;;;;;5116899;27;20229;-76
2022/12/20 12:06:48;;;;;;;13.98;11.13;;;9.90;99.90;;;;;;5112964;27;20260;-76
2022/12/20 12:09:22;;;;;;;15.43;11.50;;;10.00;99.90;;;;;;5113174;27;20230;-76
2022/12/20 12:11:54;;;;;;;13.32;10.40;;;10.00;99.90;;;;;;5116581;27;20283;-76
2022/12/20 12:15:25;;;;;;;11.73;9.82;;;10.00;99.90;;;;;;5108345;27;20231;-77
2022/12/20 12:18:03;;;;;;;18.95;13.63;;;10.00;99.90;;;;;;5057178;28;20306;-76
2022/12/20 12:21:03;;;;;;;14.50;10.90;;;10.00;99.90;;;;;;5115394;27;20246;-76
2022/12/20 12:26:39;;;;;;;14.88;11.05;;;9.90;99.90;;;;;;5112599;27;20237;-77
2022/12/20 12:29:12;;;;;;;21.35;12.90;;;10.00;99.90;;;;;;5115964;27;20253;-77
2022/12/20 12:31:42;;;;;;;15.85;11.55;;;10.00;99.90;;;;;;5123048;27;20392;-77
2022/12/20 12:34:29;;;;;;;18.40;12.73;;;10.00;99.90;;;;;;5115278;27;20310;-77
2022/12/20 12:37:40;;;;;;;15.13;11.80;;;10.00;99.90;;;;;;5115510;27;20227;-78
2022/12/20 12:40:35;;;;;;;16.08;11.55;;;10.00;99.90;;;;;;5115462;27;20747;-77
2022/12/20 12:43:37;;;;;;;13.68;10.77;;;10.00;99.90;;;;;;5117295;27;20249;-77
2022/12/20 12:46:11;;;;;;;16.17;11.25;;;10.00;99.90;;;;;;5115255;27;20249;-77
2022/12/20 12:48:54;;;;;;;15.27;10.57;;;10.00;99.90;;;;;;5135064;27;20227;-77
2022/12/20 12:51:33;;;;;;;13.77;11.60;;;10.10;99.90;;;;;;5108124;27;20227;-77
2022/12/20 12:54:18;;;;;;;15.45;11.95;;;10.10;99.90;;;;;;5114593;27;20230;-77
2022/12/20 12:56:49;;;;;;;18.58;13.13;;;10.20;99.90;;;;;;5115316;27;20234;-77
2022/12/20 12:59:48;;;;;;;14.93;12.23;;;10.20;99.90;;;;;;5114939;27;20686;-77
2022/12/20 13:02:51;;;;;;;19.23;12.95;;;10.20;99.90;;;;;;5116031;27;20636;-77
2022/12/20 13:05:45;;;;;;;13.50;10.43;;;10.30;99.90;;;;;;5114888;27;20594;-77
2022/12/20 13:08:37;;;;;;;10.98;9.73;;;10.20;99.90;;;;;;5101437;27;20233;-77
2022/12/20 13:11:32;;;;;;;12.23;9.32;;;10.30;99.90;;;;;;5114062;27;20222;-77
2022/12/20 13:14:15;;;;;;;13.88;10.75;;;10.30;99.90;;;;;;5119672;27;20265;-77
2022/12/20 13:16:52;;;;;;;15.88;11.00;;;10.30;99.90;;;;;;5140043;27;20237;-77
2022/12/20 13:19:37;;;;;;;16.42;11.43;;;10.30;99.90;;;;;;5125474;27;20594;-76
2022/12/20 13:22:22;;;;;;;14.70;11.20;;;10.30;99.90;;;;;;5128780;27;20218;-77
2022/12/20 13:28:47;;;;;;;14.85;11.63;;;10.20;99.90;;;;;;5126861;27;20320;-76